sensor_id;sensor_type;location;lat;lon;timestamp;pressure;altitude;pressure_sealevel;temperature;humidity
54556;BME280;57291;37.520;15.106;2022-07-23T00:00:20;101303.13;;;26.75;46.13
54556;BME280;57291;37.520;15.106;2022-07-23T00:02:47;101309.50;;;26.79;44.81
54556;BME280;57291;37.520;15.106;2022-07-23T00:05:15;101303.94;;;26.83;43.85
54556;BME280;57291;37.520;15.106;2022-07-23T00:07:42;101297.94;;;26.81;44.08
54556;BME280;57291;37.520;15.106;2022-07-23T00:10:09;101301.94;;;26.76;44.04
54556;BME280;57291;37.520;15.106;2022-07-23T00:12:37;101297.91;;;26.70;43.31
54556;BME280;57291;37.520;15.106;2022-07-23T00:15:18;101295.91;;;26.67;43.13
54556;BME280;57291;37.520;15.106;2022-07-23T00:17:45;101301.50;;;26.67;41.44
54556;BME280;57291;37.520;15.106;2022-07-23T00:20:13;101299.50;;;26.71;40.77
54556;BME280;57291;37.520;15.106;2022-07-23T00:22:51;101298.72;;;26.78;40.18
54556;BME280;57291;37.520;15.106;2022-07-23T00:25:20;101299.53;;;26.78;40.60
54556;BME280;57291;37.520;15.106;2022-07-23T00:27:55;101301.91;;;26.73;40.10
54556;BME280;57291;37.520;15.106;2022-07-23T00:30:22;101297.50;;;26.64;39.97
54556;BME280;57291;37.520;15.106;2022-07-23T00:32:53;101305.44;;;26.59;41.65
54556;BME280;57291;37.520;15.106;2022-07-23T00:35:24;101295.84;;;26.53;42.97
54556;BME280;57291;37.520;15.106;2022-07-23T00:37:52;101295.78;;;26.46;43.98
54556;BME280;57291;37.520;15.106;2022-07-23T00:40:20;101298.94;;;26.40;43.29
54556;BME280;57291;37.520;15.106;2022-07-23T00:42:47;101301.28;;;26.35;42.66
54556;BME280;57291;37.520;15.106;2022-07-23T00:45:14;101302.06;;;26.32;43.25
54556;BME280;57291;37.520;15.106;2022-07-23T00:47:42;101288.53;;;26.30;42.05
54556;BME280;57291;37.520;15.106;2022-07-23T00:50:10;101288.53;;;26.30;41.14
54556;BME280;57291;37.520;15.106;2022-07-23T00:52:38;101289.34;;;26.31;40.94
54556;BME280;57291;37.520;15.106;2022-07-23T00:55:07;101285.34;;;26.28;41.67
54556;BME280;57291;37.520;15.106;2022-07-23T00:57:37;101280.97;;;26.27;41.09
54556;BME280;57291;37.520;15.106;2022-07-23T01:00:07;101283.72;;;26.24;41.55
54556;BME280;57291;37.520;15.106;2022-07-23T01:02:36;101276.16;;;26.20;41.51
54556;BME280;57291;37.520;15.106;2022-07-23T01:05:04;101278.13;;;26.20;41.52
54556;BME280;57291;37.520;15.106;2022-07-23T01:07:32;101278.94;;;26.20;41.22
54556;BME280;57291;37.520;15.106;2022-07-23T01:10:01;101278.94;;;26.24;40.82
54556;BME280;57291;37.520;15.106;2022-07-23T01:12:29;101274.19;;;26.28;40.93
54556;BME280;57291;37.520;15.106;2022-07-23T01:14:58;101269.03;;;26.30;40.62
54556;BME280;57291;37.520;15.106;2022-07-23T01:17:27;101276.19;;;26.31;40.38
54556;BME280;57291;37.520;15.106;2022-07-23T01:19:55;101273.44;;;26.35;40.06
54556;BME280;57291;37.520;15.106;2022-07-23T01:24:50;101278.22;;;26.38;40.98
54556;BME280;57291;37.520;15.106;2022-07-23T01:27:22;101283.78;;;26.34;41.38
54556;BME280;57291;37.520;15.106;2022-07-23T01:29:55;101280.56;;;26.32;41.66
54556;BME280;57291;37.520;15.106;2022-07-23T01:32:24;101282.19;;;26.33;42.25
54556;BME280;57291;37.520;15.106;2022-07-23T01:34:51;101277.41;;;26.30;42.30
54556;BME280;57291;37.520;15.106;2022-07-23T01:37:19;101282.94;;;26.27;42.59
54556;BME280;57291;37.520;15.106;2022-07-23T01:39:47;101294.84;;;26.20;42.60
54556;BME280;57291;37.520;15.106;2022-07-23T01:42:15;101295.19;;;26.15;43.18
54556;BME280;57291;37.520;15.106;2022-07-23T01:44:43;101292.41;;;26.11;42.66
54556;BME280;57291;37.520;15.106;2022-07-23T01:47:17;101294.38;;;26.11;43.04
54556;BME280;57291;37.520;15.106;2022-07-23T01:49:45;101297.94;;;26.08;43.61
54556;BME280;57291;37.520;15.106;2022-07-23T01:52:32;101297.94;;;26.04;43.21
54556;BME280;57291;37.520;15.106;2022-07-23T01:54:59;101297.13;;;26.04;41.83
54556;BME280;57291;37.520;15.106;2022-07-23T01:57:27;101295.16;;;26.08;40.96
54556;BME280;57291;37.520;15.106;2022-07-23T01:59:55;101293.56;;;26.07;41.88
54556;BME280;57291;37.520;15.106;2022-07-23T02:02:22;101301.13;;;26.06;41.92
54556;BME280;57291;37.520;15.106;2022-07-23T02:04:49;101290.78;;;26.07;41.53
54556;BME280;57291;37.520;15.106;2022-07-23T02:07:20;101293.97;;;26.09;41.55
54556;BME280;57291;37.520;15.106;2022-07-23T02:09:47;101294.38;;;26.11;41.78
54556;BME280;57291;37.520;15.106;2022-07-23T02:12:14;101291.97;;;26.09;41.80
54556;BME280;57291;37.520;15.106;2022-07-23T02:14:44;101292.38;;;26.08;41.77
54556;BME280;57291;37.520;15.106;2022-07-23T02:17:11;101290.00;;;26.10;41.75
54556;BME280;57291;37.520;15.106;2022-07-23T02:19:38;101287.59;;;26.08;41.66
54556;BME280;57291;37.520;15.106;2022-07-23T02:22:05;101285.22;;;26.07;42.04
54556;BME280;57291;37.520;15.106;2022-07-23T02:24:32;101288.38;;;26.05;42.07
54556;BME280;57291;37.520;15.106;2022-07-23T02:27:00;101289.16;;;26.02;41.61
54556;BME280;57291;37.520;15.106;2022-07-23T02:29:27;101282.78;;;26.02;41.75
54556;BME280;57291;37.520;15.106;2022-07-23T02:31:54;101282.00;;;26.01;41.99
54556;BME280;57291;37.520;15.106;2022-07-23T02:34:22;101282.78;;;26.02;41.92
54556;BME280;57291;37.520;15.106;2022-07-23T02:36:49;101274.03;;;26.00;41.81
54556;BME280;57291;37.520;15.106;2022-07-23T02:39:17;101283.56;;;25.99;41.84
54556;BME280;57291;37.520;15.106;2022-07-23T02:41:44;101283.97;;;25.97;42.10
54556;BME280;57291;37.520;15.106;2022-07-23T02:44:11;101281.53;;;25.95;42.75
54556;BME280;57291;37.520;15.106;2022-07-23T02:46:41;101281.94;;;25.94;42.60
54556;BME280;57291;37.520;15.106;2022-07-23T02:49:08;101288.28;;;25.91;42.74
54556;BME280;57291;37.520;15.106;2022-07-23T02:51:35;101285.88;;;25.89;43.05
54556;BME280;57291;37.520;15.106;2022-07-23T02:54:05;101286.25;;;25.84;43.26
54556;BME280;57291;37.520;15.106;2022-07-23T02:56:32;101287.75;;;25.78;42.99
54556;BME280;57291;37.520;15.106;2022-07-23T02:59:00;101288.94;;;25.77;42.72
54556;BME280;57291;37.520;15.106;2022-07-23T03:01:27;101291.34;;;25.79;42.48
54556;BME280;57291;37.520;15.106;2022-07-23T03:03:55;101291.00;;;25.80;41.93
54556;BME280;57291;37.520;15.106;2022-07-23T03:06:22;101291.78;;;25.81;41.45
54556;BME280;57291;37.520;15.106;2022-07-23T03:08:49;101299.75;;;25.82;41.65
54556;BME280;57291;37.520;15.106;2022-07-23T03:11:17;101295.41;;;25.85;41.74
54556;BME280;57291;37.520;15.106;2022-07-23T03:13:45;101294.63;;;25.88;41.82
54556;BME280;57291;37.520;15.106;2022-07-23T03:16:12;101298.22;;;25.88;41.40
54556;BME280;57291;37.520;15.106;2022-07-23T03:18:40;101297.78;;;25.86;41.23
54556;BME280;57291;37.520;15.106;2022-07-23T03:21:09;101296.16;;;25.82;41.49
54556;BME280;57291;37.520;15.106;2022-07-23T03:23:37;101298.91;;;25.78;41.93
54556;BME280;57291;37.520;15.106;2022-07-23T03:26:04;101298.09;;;25.78;42.40
54556;BME280;57291;37.520;15.106;2022-07-23T03:28:31;101297.31;;;25.77;42.28
54556;BME280;57291;37.520;15.106;2022-07-23T03:30:59;101301.66;;;25.74;42.01
54556;BME280;57291;37.520;15.106;2022-07-23T03:33:26;101300.06;;;25.73;42.38
54556;BME280;57291;37.520;15.106;2022-07-23T03:35:53;101303.22;;;25.72;42.65
54556;BME280;57291;37.520;15.106;2022-07-23T03:38:24;101299.63;;;25.71;43.31
54556;BME280;57291;37.520;15.106;2022-07-23T03:40:52;101303.97;;;25.69;42.96
54556;BME280;57291;37.520;15.106;2022-07-23T03:43:20;101302.75;;;25.66;43.70
54556;BME280;57291;37.520;15.106;2022-07-23T03:45:47;101298.78;;;25.64;43.69
54556;BME280;57291;37.520;15.106;2022-07-23T03:48:14;101305.94;;;25.65;43.24
54556;BME280;57291;37.520;15.106;2022-07-23T03:50:43;101297.59;;;25.65;43.37
54556;BME280;57291;37.520;15.106;2022-07-23T03:53:11;101302.38;;;25.64;43.01
54556;BME280;57291;37.520;15.106;2022-07-23T03:55:38;101307.53;;;25.66;43.88
54556;BME280;57291;37.520;15.106;2022-07-23T03:58:05;101297.16;;;25.63;43.89
54556;BME280;57291;37.520;15.106;2022-07-23T04:00:32;101306.72;;;25.65;44.44
54556;BME280;57291;37.520;15.106;2022-07-23T04:02:59;101315.09;;;25.65;44.49
54556;BME280;57291;37.520;15.106;2022-07-23T04:05:27;101309.53;;;25.65;44.86
54556;BME280;57291;37.520;15.106;2022-07-23T04:08:04;101311.09;;;25.66;44.90
54556;BME280;57291;37.520;15.106;2022-07-23T04:10:32;101313.94;;;25.70;45.28
54556;BME280;57291;37.520;15.106;2022-07-23T04:13:01;101317.56;;;25.74;44.77
54556;BME280;57291;37.520;15.106;2022-07-23T04:15:28;101310.44;;;25.77;44.69
54556;BME280;57291;37.520;15.106;2022-07-23T04:17:55;101309.63;;;25.80;45.13
54556;BME280;57291;37.520;15.106;2022-07-23T04:20:29;101307.31;;;25.82;45.18
54556;BME280;57291;37.520;15.106;2022-07-23T04:22:59;101315.31;;;25.87;45.02
54556;BME280;57291;37.520;15.106;2022-07-23T04:25:27;101314.13;;;25.91;45.31
54556;BME280;57291;37.520;15.106;2022-07-23T04:27:54;101317.75;;;25.95;44.85
54556;BME280;57291;37.520;15.106;2022-07-23T04:30:22;101317.78;;;26.03;45.00
54556;BME280;57291;37.520;15.106;2022-07-23T04:32:50;101323.81;;;26.08;45.22
54556;BME280;57291;37.520;15.106;2022-07-23T04:35:22;101323.84;;;26.15;44.73
54556;BME280;57291;37.520;15.106;2022-07-23T04:37:53;101313.94;;;26.22;44.78
54556;BME280;57291;37.520;15.106;2022-07-23T04:40:20;101320.75;;;26.28;44.89
54556;BME280;57291;37.520;15.106;2022-07-23T04:42:48;101315.63;;;26.33;45.21
54556;BME280;57291;37.520;15.106;2022-07-23T04:45:15;101322.81;;;26.41;44.76
54556;BME280;57291;37.520;15.106;2022-07-23T04:47:44;101322.09;;;26.48;44.80
54556;BME280;57291;37.520;15.106;2022-07-23T04:50:12;101324.13;;;26.55;44.57
54556;BME280;57291;37.520;15.106;2022-07-23T04:52:40;101329.78;;;26.65;45.11
54556;BME280;57291;37.520;15.106;2022-07-23T04:55:07;101327.81;;;26.73;44.18
54556;BME280;57291;37.520;15.106;2022-07-23T04:57:35;101330.63;;;26.80;44.21
54556;BME280;57291;37.520;15.106;2022-07-23T05:00:03;101334.63;;;26.90;44.33
54556;BME280;57291;37.520;15.106;2022-07-23T05:02:31;101328.72;;;26.99;44.31
54556;BME280;57291;37.520;15.106;2022-07-23T05:04:58;101330.31;;;27.07;43.84
54556;BME280;57291;37.520;15.106;2022-07-23T05:07:26;101328.78;;;27.17;44.17
54556;BME280;57291;37.520;15.106;2022-07-23T05:09:54;101337.16;;;27.27;43.73
54556;BME280;57291;37.520;15.106;2022-07-23T05:12:21;101334.00;;;27.36;43.73
54556;BME280;57291;37.520;15.106;2022-07-23T05:14:48;101329.63;;;27.46;43.68
54556;BME280;57291;37.520;15.106;2022-07-23T05:17:16;101332.06;;;27.58;43.48
54556;BME280;57291;37.520;15.106;2022-07-23T05:19:43;101333.63;;;27.70;44.49
54556;BME280;57291;37.520;15.106;2022-07-23T05:22:10;101334.44;;;27.74;45.22
54556;BME280;57291;37.520;15.106;2022-07-23T05:24:37;101329.28;;;27.87;44.65
54556;BME280;57291;37.520;15.106;2022-07-23T05:27:07;101340.84;;;28.03;45.42
54556;BME280;57291;37.520;15.106;2022-07-23T05:29:34;101328.84;;;28.31;46.61
54556;BME280;57291;37.520;15.106;2022-07-23T05:32:02;101341.28;;;29.29;46.34
54556;BME280;57291;37.520;15.106;2022-07-23T05:34:32;101340.44;;;30.36;45.29
54556;BME280;57291;37.520;15.106;2022-07-23T05:36:59;101344.72;;;31.43;44.05
54556;BME280;57291;37.520;15.106;2022-07-23T05:39:26;101338.16;;;33.24;41.10
54556;BME280;57291;37.520;15.106;2022-07-23T05:41:53;101330.66;;;35.15;37.61
54556;BME280;57291;37.520;15.106;2022-07-23T05:44:21;101329.75;;;36.83;34.53
54556;BME280;57291;37.520;15.106;2022-07-23T05:46:49;101325.53;;;37.59;34.40
54556;BME280;57291;37.520;15.106;2022-07-23T05:49:20;101330.88;;;37.57;33.51
54556;BME280;57291;37.520;15.106;2022-07-23T05:52:08;101337.81;;;35.93;37.96
54556;BME280;57291;37.520;15.106;2022-07-23T05:55:13;101338.66;;;33.88;43.14
54556;BME280;57291;37.520;15.106;2022-07-23T05:57:41;101338.78;;;32.75;45.65
54556;BME280;57291;37.520;15.106;2022-07-23T06:00:09;101340.09;;;32.51;46.76
54556;BME280;57291;37.520;15.106;2022-07-23T06:02:42;101330.88;;;33.43;44.21
54556;BME280;57291;37.520;15.106;2022-07-23T06:05:11;101333.75;;;34.79;41.14
54556;BME280;57291;37.520;15.106;2022-07-23T06:07:38;101343.06;;;35.82;40.37
54556;BME280;57291;37.520;15.106;2022-07-23T06:10:07;101341.41;;;36.06;39.66
54556;BME280;57291;37.520;15.106;2022-07-23T06:12:34;101341.19;;;37.01;39.55
54556;BME280;57291;37.520;15.106;2022-07-23T06:15:02;101349.25;;;37.43;37.30
54556;BME280;57291;37.520;15.106;2022-07-23T06:17:31;101343.97;;;37.23;37.52
54556;BME280;57291;37.520;15.106;2022-07-23T06:19:58;101345.66;;;37.12;37.37
54556;BME280;57291;37.520;15.106;2022-07-23T06:22:25;101354.53;;;37.23;38.40
54556;BME280;57291;37.520;15.106;2022-07-23T06:24:53;101359.16;;;36.85;39.01
54556;BME280;57291;37.520;15.106;2022-07-23T06:27:21;101357.75;;;36.59;38.73
54556;BME280;57291;37.520;15.106;2022-07-23T06:29:52;101361.88;;;36.45;39.73
54556;BME280;57291;37.520;15.106;2022-07-23T06:32:20;101358.66;;;36.34;38.78
54556;BME280;57291;37.520;15.106;2022-07-23T06:34:47;101357.47;;;36.44;38.08
54556;BME280;57291;37.520;15.106;2022-07-23T06:37:15;101358.13;;;36.48;37.53
54556;BME280;57291;37.520;15.106;2022-07-23T06:39:45;101359.72;;;36.49;40.77
54556;BME280;57291;37.520;15.106;2022-07-23T06:42:13;101364.53;;;36.39;40.25
54556;BME280;57291;37.520;15.106;2022-07-23T06:44:44;101354.19;;;36.90;38.11
54556;BME280;57291;37.520;15.106;2022-07-23T06:47:15;101372.50;;;36.76;38.14
54556;BME280;57291;37.520;15.106;2022-07-23T06:49:42;101374.31;;;36.13;39.35
54556;BME280;57291;37.520;15.106;2022-07-23T06:52:09;101371.66;;;36.66;38.82
54556;BME280;57291;37.520;15.106;2022-07-23T06:54:36;101374.16;;;36.86;38.89
54556;BME280;57291;37.520;15.106;2022-07-23T06:57:04;101374.63;;;36.62;40.05
54556;BME280;57291;37.520;15.106;2022-07-23T06:59:31;101366.75;;;37.11;40.22
54556;BME280;57291;37.520;15.106;2022-07-23T07:01:59;101363.41;;;37.43;40.26
54556;BME280;57291;37.520;15.106;2022-07-23T07:04:27;101365.34;;;38.05;37.76
54556;BME280;57291;37.520;15.106;2022-07-23T07:06:54;101367.06;;;38.30;36.92
54556;BME280;57291;37.520;15.106;2022-07-23T07:09:21;101362.78;;;38.07;36.80
54556;BME280;57291;37.520;15.106;2022-07-23T07:11:49;101358.34;;;37.78;37.53
54556;BME280;57291;37.520;15.106;2022-07-23T07:14:16;101359.66;;;37.46;38.15
54556;BME280;57291;37.520;15.106;2022-07-23T07:16:43;101357.03;;;37.21;38.58
54556;BME280;57291;37.520;15.106;2022-07-23T07:19:10;101358.94;;;37.24;39.28
54556;BME280;57291;37.520;15.106;2022-07-23T07:21:38;101361.78;;;36.71;39.88
54556;BME280;57291;37.520;15.106;2022-07-23T07:24:05;101362.59;;;36.36;41.63
54556;BME280;57291;37.520;15.106;2022-07-23T07:26:33;101364.63;;;36.36;42.43
54556;BME280;57291;37.520;15.106;2022-07-23T07:29:02;101362.44;;;36.18;42.66
54556;BME280;57291;37.520;15.106;2022-07-23T07:31:30;101362.13;;;36.38;42.60
54556;BME280;57291;37.520;15.106;2022-07-23T07:33:57;101361.41;;;36.25;42.49
54556;BME280;57291;37.520;15.106;2022-07-23T07:36:25;101363.88;;;36.23;42.47
54556;BME280;57291;37.520;15.106;2022-07-23T07:38:52;101360.13;;;36.04;43.58
54556;BME280;57291;37.520;15.106;2022-07-23T07:41:19;101358.56;;;35.77;43.93
54556;BME280;57291;37.520;15.106;2022-07-23T07:43:50;101356.66;;;35.74;44.21
54556;BME280;57291;37.520;15.106;2022-07-23T07:46:17;101348.84;;;35.65;44.58
54556;BME280;57291;37.520;15.106;2022-07-23T07:48:45;101357.47;;;35.62;44.63
54556;BME280;57291;37.520;15.106;2022-07-23T07:51:12;101356.31;;;35.34;45.50
54556;BME280;57291;37.520;15.106;2022-07-23T07:53:39;101358.94;;;35.41;45.43
54556;BME280;57291;37.520;15.106;2022-07-23T07:56:07;101354.19;;;35.25;45.40
54556;BME280;57291;37.520;15.106;2022-07-23T07:58:35;101354.44;;;34.89;46.15
54556;BME280;57291;37.520;15.106;2022-07-23T08:01:02;101354.50;;;35.14;46.18
54556;BME280;57291;37.520;15.106;2022-07-23T08:03:30;101356.94;;;34.99;46.24
54556;BME280;57291;37.520;15.106;2022-07-23T08:05:58;101360.59;;;34.71;47.27
54556;BME280;57291;37.520;15.106;2022-07-23T08:08:25;101353.47;;;34.37;48.15
54556;BME280;57291;37.520;15.106;2022-07-23T08:10:52;101356.06;;;34.61;47.82
54556;BME280;57291;37.520;15.106;2022-07-23T08:13:21;101357.84;;;34.54;47.31
54556;BME280;57291;37.520;15.106;2022-07-23T08:15:49;101358.84;;;34.31;48.32
54556;BME280;57291;37.520;15.106;2022-07-23T08:18:19;101369.31;;;34.47;48.38
54556;BME280;57291;37.520;15.106;2022-07-23T08:20:46;101363.78;;;34.73;47.01
54556;BME280;57291;37.520;15.106;2022-07-23T08:23:13;101369.03;;;34.29;48.24
54556;BME280;57291;37.520;15.106;2022-07-23T08:25:42;101358.81;;;34.48;47.05
54556;BME280;57291;37.520;15.106;2022-07-23T08:28:11;101362.84;;;34.63;45.88
54556;BME280;57291;37.520;15.106;2022-07-23T08:30:40;101359.81;;;34.70;45.52
54556;BME280;57291;37.520;15.106;2022-07-23T08:33:13;101364.03;;;34.49;47.01
54556;BME280;57291;37.520;15.106;2022-07-23T08:36:01;101369.16;;;34.38;47.10
54556;BME280;57291;37.520;15.106;2022-07-23T08:41:10;101366.63;;;34.86;45.66
54556;BME280;57291;37.520;15.106;2022-07-23T08:43:37;101360.84;;;34.76;45.90
54556;BME280;57291;37.520;15.106;2022-07-23T08:46:07;101372.94;;;34.77;46.04
54556;BME280;57291;37.520;15.106;2022-07-23T08:48:35;101365.03;;;34.85;45.65
54556;BME280;57291;37.520;15.106;2022-07-23T08:51:06;101368.06;;;34.77;45.38
54556;BME280;57291;37.520;15.106;2022-07-23T08:53:34;101366.59;;;35.02;44.50
54556;BME280;57291;37.520;15.106;2022-07-23T08:56:06;101365.53;;;34.96;45.02
54556;BME280;57291;37.520;15.106;2022-07-23T08:58:35;101364.69;;;35.12;44.43
54556;BME280;57291;37.520;15.106;2022-07-23T09:01:03;101370.53;;;34.63;44.42
54556;BME280;57291;37.520;15.106;2022-07-23T09:03:35;101374.28;;;34.43;45.37
54556;BME280;57291;37.520;15.106;2022-07-23T09:06:03;101376.19;;;34.17;46.61
54556;BME280;57291;37.520;15.106;2022-07-23T09:11:05;101371.59;;;33.74;45.96
54556;BME280;57291;37.520;15.106;2022-07-23T09:13:39;101370.91;;;33.54;47.91
54556;BME280;57291;37.520;15.106;2022-07-23T09:16:35;101376.16;;;33.52;47.69
54556;BME280;57291;37.520;15.106;2022-07-23T09:19:04;101375.19;;;33.58;47.56
54556;BME280;57291;37.520;15.106;2022-07-23T09:21:36;101373.91;;;33.63;47.49
54556;BME280;57291;37.520;15.106;2022-07-23T09:24:04;101380.38;;;33.44;48.32
54556;BME280;57291;37.520;15.106;2022-07-23T09:26:41;101371.41;;;33.12;48.91
54556;BME280;57291;37.520;15.106;2022-07-23T09:29:23;101377.47;;;32.91;49.25
54556;BME280;57291;37.520;15.106;2022-07-23T09:32:00;101372.34;;;32.46;49.28
54556;BME280;57291;37.520;15.106;2022-07-23T09:34:36;101370.00;;;31.70;51.02
54556;BME280;57291;37.520;15.106;2022-07-23T09:37:19;101378.41;;;31.13;53.79
54556;BME280;57291;37.520;15.106;2022-07-23T09:39:47;101379.09;;;30.93;53.63
54556;BME280;57291;37.520;15.106;2022-07-23T09:42:17;101378.56;;;30.68;54.52
54556;BME280;57291;37.520;15.106;2022-07-23T09:44:50;101375.25;;;30.38;55.64
54556;BME280;57291;37.520;15.106;2022-07-23T09:47:18;101367.88;;;30.10;57.12
54556;BME280;57291;37.520;15.106;2022-07-23T09:52:28;101374.75;;;30.51;56.48
54556;BME280;57291;37.520;15.106;2022-07-23T09:55:03;101376.66;;;30.57;57.06
54556;BME280;57291;37.520;15.106;2022-07-23T09:57:32;101374.50;;;30.34;56.50
54556;BME280;57291;37.520;15.106;2022-07-23T10:00:05;101367.00;;;30.21;58.65
54556;BME280;57291;37.520;15.106;2022-07-23T10:02:34;101369.31;;;30.33;57.85
54556;BME280;57291;37.520;15.106;2022-07-23T10:05:21;101370.66;;;30.55;56.62
54556;BME280;57291;37.520;15.106;2022-07-23T10:08:26;101369.75;;;30.66;55.97
54556;BME280;57291;37.520;15.106;2022-07-23T10:11:10;101357.31;;;30.67;56.31
54556;BME280;57291;37.520;15.106;2022-07-23T10:13:50;101359.19;;;30.80;55.32
54556;BME280;57291;37.520;15.106;2022-07-23T10:16:25;101358.91;;;30.68;55.84
54556;BME280;57291;37.520;15.106;2022-07-23T10:18:54;101362.25;;;30.55;56.29
54556;BME280;57291;37.520;15.106;2022-07-23T10:21:27;101363.53;;;30.51;57.28
54556;BME280;57291;37.520;15.106;2022-07-23T10:37:22;101367.25;;;30.75;57.69
54556;BME280;57291;37.520;15.106;2022-07-23T10:40:17;101363.41;;;30.61;57.17
54556;BME280;57291;37.520;15.106;2022-07-23T10:42:48;101366.53;;;30.29;58.31
54556;BME280;57291;37.520;15.106;2022-07-23T10:47:54;101360.19;;;30.25;57.77
54556;BME280;57291;37.520;15.106;2022-07-23T10:50:27;101358.13;;;30.29;58.75
54556;BME280;57291;37.520;15.106;2022-07-23T10:53:13;101360.97;;;30.26;58.92
54556;BME280;57291;37.520;15.106;2022-07-23T10:55:47;101359.63;;;30.41;57.94
54556;BME280;57291;37.520;15.106;2022-07-23T10:58:21;101353.66;;;30.35;57.93
54556;BME280;57291;37.520;15.106;2022-07-23T11:00:49;101355.38;;;30.64;58.01
54556;BME280;57291;37.520;15.106;2022-07-23T11:03:32;101351.91;;;30.87;57.48
54556;BME280;57291;37.520;15.106;2022-07-23T11:05:59;101353.25;;;31.05;58.03
54556;BME280;57291;37.520;15.106;2022-07-23T11:08:26;101351.66;;;31.04;58.27
54556;BME280;57291;37.520;15.106;2022-07-23T11:11:07;101357.88;;;31.19;57.71
54556;BME280;57291;37.520;15.106;2022-07-23T11:13:37;101345.41;;;30.93;55.88
54556;BME280;57291;37.520;15.106;2022-07-23T11:16:21;101344.41;;;30.73;57.26
54556;BME280;57291;37.520;15.106;2022-07-23T11:18:58;101349.81;;;30.94;56.71
54556;BME280;57291;37.520;15.106;2022-07-23T11:24:14;101346.66;;;30.89;57.50
54556;BME280;57291;37.520;15.106;2022-07-23T11:31:57;101336.44;;;30.33;57.95
54556;BME280;57291;37.520;15.106;2022-07-23T11:37:08;101327.63;;;31.03;56.09
54556;BME280;57291;37.520;15.106;2022-07-23T11:39:37;101320.59;;;31.19;55.58
54556;BME280;57291;37.520;15.106;2022-07-23T11:42:07;101323.09;;;31.13;56.39
54556;BME280;57291;37.520;15.106;2022-07-23T11:44:37;101322.53;;;31.22;56.06
54556;BME280;57291;37.520;15.106;2022-07-23T11:47:05;101319.16;;;31.07;56.10
54556;BME280;57291;37.520;15.106;2022-07-23T11:49:33;101316.47;;;31.00;56.92
54556;BME280;57291;37.520;15.106;2022-07-23T11:52:09;101316.88;;;30.98;57.16
54556;BME280;57291;37.520;15.106;2022-07-23T11:54:49;101310.91;;;30.93;57.86
54556;BME280;57291;37.520;15.106;2022-07-23T11:57:18;101317.50;;;31.10;57.47
54556;BME280;57291;37.520;15.106;2022-07-23T11:59:47;101316.88;;;30.98;57.46
54556;BME280;57291;37.520;15.106;2022-07-23T12:02:16;101316.28;;;31.11;57.89
54556;BME280;57291;37.520;15.106;2022-07-23T12:04:46;101318.63;;;31.16;58.03
54556;BME280;57291;37.520;15.106;2022-07-23T12:07:35;101321.69;;;31.25;57.39
54556;BME280;57291;37.520;15.106;2022-07-23T12:12:46;101313.94;;;31.05;58.49
54556;BME280;57291;37.520;15.106;2022-07-23T12:15:14;101316.72;;;31.09;58.30
54556;BME280;57291;37.520;15.106;2022-07-23T12:17:44;101317.88;;;31.12;58.16
54556;BME280;57291;37.520;15.106;2022-07-23T12:20:39;101304.22;;;31.14;59.69
54556;BME280;57291;37.520;15.106;2022-07-23T12:23:13;101307.16;;;31.03;60.26
54556;BME280;57291;37.520;15.106;2022-07-23T12:25:48;101312.69;;;30.79;60.34
54556;BME280;57291;37.520;15.106;2022-07-23T12:28:19;101304.63;;;30.85;59.95
54556;BME280;57291;37.520;15.106;2022-07-23T12:30:54;101307.16;;;30.72;60.45
54556;BME280;57291;37.520;15.106;2022-07-23T12:33:31;101305.94;;;30.77;58.78
54556;BME280;57291;37.520;15.106;2022-07-23T12:36:04;101312.91;;;30.61;59.24
54556;BME280;57291;37.520;15.106;2022-07-23T12:38:45;101296.81;;;30.66;59.23
54556;BME280;57291;37.520;15.106;2022-07-23T12:41:14;101300.25;;;30.46;59.59
54556;BME280;57291;37.520;15.106;2022-07-23T12:43:43;101302.44;;;30.66;58.70
54556;BME280;57291;37.520;15.106;2022-07-23T12:46:12;101299.63;;;30.66;57.40
54556;BME280;57291;37.520;15.106;2022-07-23T12:51:25;101292.78;;;30.70;57.53
54556;BME280;57291;37.520;15.106;2022-07-23T12:54:04;101293.94;;;31.03;56.40
54556;BME280;57291;37.520;15.106;2022-07-23T12:56:35;101297.72;;;31.20;55.80
54556;BME280;57291;37.520;15.106;2022-07-23T12:59:16;101295.25;;;31.22;56.06
54556;BME280;57291;37.520;15.106;2022-07-23T13:01:53;101292.69;;;31.35;55.59
54556;BME280;57291;37.520;15.106;2022-07-23T13:04:25;101286.38;;;31.27;54.64
54556;BME280;57291;37.520;15.106;2022-07-23T13:06:53;101288.81;;;30.98;55.27
54556;BME280;57291;37.520;15.106;2022-07-23T13:09:23;101287.09;;;31.04;53.70
54556;BME280;57291;37.520;15.106;2022-07-23T13:11:53;101282.97;;;31.13;53.18
54556;BME280;57291;37.520;15.106;2022-07-23T13:14:23;101273.91;;;31.28;53.13
54556;BME280;57291;37.520;15.106;2022-07-23T13:16:54;101279.63;;;31.48;53.34
54556;BME280;57291;37.520;15.106;2022-07-23T13:19:23;101276.59;;;31.39;53.67
54556;BME280;57291;37.520;15.106;2022-07-23T13:21:52;101264.59;;;31.35;50.03
54556;BME280;57291;37.520;15.106;2022-07-23T13:24:20;101272.63;;;31.37;51.02
54556;BME280;57291;37.520;15.106;2022-07-23T13:26:47;101264.00;;;31.47;50.77
54556;BME280;57291;37.520;15.106;2022-07-23T13:29:19;101261.88;;;31.55;50.42
54556;BME280;57291;37.520;15.106;2022-07-23T13:31:46;101252.84;;;31.67;50.15
54556;BME280;57291;37.520;15.106;2022-07-23T13:34:17;101253.06;;;31.76;50.61
54556;BME280;57291;37.520;15.106;2022-07-23T13:36:46;101254.47;;;31.88;51.29